Nearby METAR Reports

 

KO22 - Columbia, California, USA
Distance from station: SSW 15mi, 25km
Updated: Fri, 15-Dec-2017 7:35am PST
Clear
Clear
 Wind from NNE
Wind: NNE 3 mph , 6 km/h
Temperature: 39°F , 4°C
Dew Point: 27°F , -3°C
Humidity: 61%
Barometer: 30.20 inHg , 1022.7 hPa
Clouds: Clear
Visibility: 10 miles , 16 km
2017/12/15 15:35 KO22 151535Z AUTO 03003KT 10SM CLR 04/M03 A3020 RMK AO1
KPVF - Placerville, California, USA
Distance from station: NW 39mi, 63km
Updated: Fri, 15-Dec-2017 7:55am PST
Clear
Clear
 Wind from calm
Wind: Calm
Temperature: 59°F , 15°C
Dew Point: 10°F , -12°C
Humidity: 14%
Barometer: 30.20 inHg , 1022.7 hPa
Clouds: Clear
Visibility: 10 miles , 16 km
2017/12/15 15:55 KPVF 151555Z AUTO 00000KT 10SM CLR 15/M12 A3020 RMK AO1
 
KBAN - Bridgeport(Mcmwt, California, USA
Distance from station: E 45mi, 73km
Updated: Thu, 09-Nov-2017 4:52am PST
NOT Current
Few Clouds
Few Clouds
 Wind from WSW
Wind: WSW 23 mph , 37 km/h, Gust: 37 mph , 59 km/h
Barometer: 29.95 inHg , 1014.2 hPa
Clouds: Few Clouds
Visibility: 10 miles , 16 km
Cloud details: Few Clouds 3500 ft
2017/11/09 12:52 KBAN 091252Z AUTO 24020G32KT 10SM FEW035 A2995 RMK AO2 PK WND 25042/1220 SNB00E04 SLPNO P0000 $
KTVL - South Lake Tahoe, California, USA
Distance from station: NNE 49mi, 78km
Updated: Fri, 15-Dec-2017 7:53am PST
Clear
Clear
 Wind from calm
Wind: Calm
Temperature: 21°F , -6°C
Dew Point: 18°F , -8°C
Humidity: 86%
Barometer: 30.33 inHg , 1027.1 hPa
Clouds: Clear
Visibility: 10 miles , 16 km
2017/12/15 15:53 KTVL 151553Z AUTO 00000KT 10SM CLR M06/M08 A3033 RMK AO2 SLP294 T10561083
 
KSCK - Stockton, California, USA
Distance from station: WSW 54mi, 87km
Updated: Fri, 15-Dec-2017 7:55am PST
Mist, Clear
Mist, Clear
 Wind from calm
Wind: Calm
Temperature: 34°F , 1°C
Dew Point: 34°F , 1°C
Humidity: 100%
Barometer: 30.18 inHg , 1022 hPa
Summary: Mist
Clouds: Clear
Visibility: 3 miles , 5 km
2017/12/15 15:55 KSCK 151555Z 00000KT 3SM BR CLR 01/01 A3018 RMK AO2 SLP219 T00110006
KMHR - Mather Field, California, USA
Distance from station: WNW 54mi, 88km
Updated: Fri, 15-Dec-2017 6:45am PST
NOT Current
Partly cloudy
Partly cloudy
 Wind from calm
Wind: Calm
Temperature: 34°F , 1°C
Dew Point: 32°F , 0°C
Humidity: 93%
Barometer: 30.19 inHg , 1022.4 hPa
Clouds: Partly cloudy
Visibility: 9 miles , 14 km
Cloud details: Partly cloudy 2000 ft
2017/12/15 14:45 KMHR 151445Z 00000KT 9SM SCT020 01/00 A3019
 
KMOD - Modesto, California, USA
Distance from station: SW 55mi, 88km
Updated: Fri, 15-Dec-2017 7:53am PST
Mist, Clear
Mist, Clear
 Wind from calm
Wind: Calm
Temperature: 34°F , 1°C
Dew Point: 34°F , 1°C
Humidity: 100%
Barometer: 30.18 inHg , 1022 hPa
Summary: Mist
Clouds: Clear
Visibility: 2 miles , 3 km
2017/12/15 15:53 KMOD 151553Z 00000KT 2SM BR CLR 01/01 A3018 RMK AO2 SLP223 T00110006
KMER - Merced/Castle Af, California, USA
Distance from station: S 61mi, 98km
Updated: Fri, 15-Dec-2017 7:45am PST
Mist, Partly cloudy
Mist, Partly cloudy
 Wind from calm
Wind: Calm
Temperature: 32°F , 0°C
Dew Point: 32°F , 0°C
Humidity: 100%
Barometer: 30.19 inHg , 1022.4 hPa
Summary: Mist
Clouds: Partly cloudy
Visibility: 2 miles , 0 km
Cloud details: Partly cloudy 5000 ft
2017/12/15 15:45 KMER 151545Z 00000KT 2 SM BR SCT050 00/00 A3019
 
KAUN - Auburn Muni, California, USA
Distance from station: NW 63mi, 101km
Updated: Fri, 15-Dec-2017 7:55am PST
Clear
Clear
 Wind from calm
Wind: Calm
Temperature: 46°F , 8°C
Dew Point: 32°F , 0°C
Humidity: 57%
Barometer: 30.18 inHg , 1022 hPa
Clouds: Clear
Visibility: 10 miles , 16 km
2017/12/15 15:55 KAUN 151555Z AUTO 00000KT 10SM CLR 08/00 A3018 RMK AO1
KMCC - Mcclellan Afb, California, USA
Distance from station: WNW 64mi, 103km
Updated: Fri, 15-Dec-2017 7:50am PST
Fog, Overcast
Fog, Overcast
 Wind from calm
Wind: Calm
Temperature: 36°F , 2°C
Dew Point: 36°F , 2°C
Humidity: 100%
Barometer: 30.21 inHg , 1023 hPa
Summary: Fog
Clouds: Overcast
Visibility: 1/4 mile , 2 km
Cloud details: Overcast 200 ft
2017/12/15 15:50 KMCC 151550Z AUTO 00000KT 1/4SM FG OVC002 02/02 A3021 RMK AO2
 
KSAC - Sacramento, California, USA
Distance from station: WNW 65mi, 104km
Updated: Fri, 15-Dec-2017 7:53am PST
Mist, Clear
Mist, Clear
 Wind from calm
Wind: Calm
Temperature: 37°F , 3°C
Dew Point: 37°F , 3°C
Humidity: 100%
Barometer: 30.20 inHg , 1022.7 hPa
Summary: Mist
Clouds: Clear
Visibility: 3 miles , 5 km
2017/12/15 15:53 KSAC 151553Z 00000KT 3SM BR CLR 03/03 A3020 RMK AO2 SLP226 T00330033
KMCE - Merced, California, USA
Distance from station: S 67mi, 108km
Updated: Fri, 15-Dec-2017 7:53am PST
Mist, Clear
Mist, Clear
 Wind from calm
Wind: Calm
Temperature: 30°F , -1°C
Dew Point: 27°F , -3°C
Humidity: 86%
Barometer: 30.19 inHg , 1022.4 hPa
Summary: Mist
Clouds: Clear
Visibility: 2 1/2 miles , 2 km
2017/12/15 15:53 KMCE 151553Z AUTO 00000KT 2 1/2SM BR CLR M01/M03 A3019 RMK AO2 SLP223 T10061028
 
KLHM - Lincoln, California, USA
Distance from station: NW 71mi, 115km
Updated: Fri, 15-Dec-2017 7:55am PST
Clear
Clear
 Wind from calm
Wind: Calm
Temperature: 32°F , 0°C
Dew Point: 32°F , 0°C
Humidity: 100%
Barometer: 30.19 inHg , 1022.4 hPa
Clouds: Clear
Visibility: 10 miles , 16 km
2017/12/15 15:55 KLHM 151555Z AUTO 00000KT 10SM CLR 00/00 A3019 RMK AO1
KCXP - Carson City, Nevada, USA
Distance from station: NNE 72mi, 117km
Updated: Fri, 15-Dec-2017 7:55am PST
Clear
Clear
 Wind from calm
Wind: Calm
Temperature: 23°F , -5°C
Dew Point: 16°F , -9°C
Humidity: 74%
Barometer: 30.32 inHg , 1026.8 hPa
Clouds: Clear
Visibility: 10 miles , 16 km
2017/12/15 15:55 KCXP 151555Z AUTO 00000KT 10SM CLR M05/M09 A3032 RMK AO2
 
KBLU - Emigrant Gap, California, USA
Distance from station: NNW 74mi, 119km
Updated: Fri, 15-Dec-2017 7:52am PST
Clear
Clear
 Wind from SE
Wind: SE 5 mph , 7 km/h
Temperature: 55°F , 13°C
Dew Point: -0°F , -18°C
Humidity: 10%
Barometer: 30.29 inHg , 1025.7 hPa
Clouds: Clear
Visibility: 10 miles , 16 km
2017/12/15 15:52 KBLU 151552Z AUTO 13004KT 10SM CLR 13/M18 A3029 RMK AO2 SLP199 T01281178 TSNO
KSMF - Sacramento/Metro, California, USA
Distance from station: WNW 75mi, 120km
Updated: Fri, 15-Dec-2017 7:53am PST
Mist, Patches of, Fog, Partly cloudy
Mist, Patches of, Fog, Partly cloudy
 Wind from calm
Wind: Calm
Temperature: 37°F , 3°C
Dew Point: 37°F , 3°C
Humidity: 100%
Barometer: 30.19 inHg , 1022.4 hPa
Summary: Mist, Patches of, Fog
Clouds: Partly cloudy
Visibility: 3 miles , 5 km
Cloud details: Partly cloudy 24000 ft
2017/12/15 15:53 KSMF 151553Z 00000KT 3SM BR BCFG SCT240 03/03 A3019 RMK AO2 SLP223 T00280028
 
KTRK - Truckee Tahoe, California, USA
Distance from station: N 75mi, 120km
Updated: Fri, 15-Dec-2017 7:50am PST
Few Clouds
Few Clouds
 Wind from calm
Wind: Calm
Temperature: 18°F , -8°C
Dew Point: 14°F , -10°C
Humidity: 86%
Barometer: 30.32 inHg , 1026.8 hPa
Clouds: Few Clouds
Visibility: 10 miles , 16 km
Cloud details: Few Clouds 1500 ft
2017/12/15 15:50 KTRK 151550Z 00000KT 10SM FEW015BKN022 M08/M10 A3032
KGOO - Grass Valley, California, USA
Distance from station: NNW 76mi, 122km
Updated: Fri, 15-Dec-2017 8:00am PST
Clear
Clear
 Wind from calm
Wind: Calm
Temperature: 61°F , 16°C
Dew Point: 10°F , -12°C
Humidity: 13%
Barometer: 30.21 inHg , 1023 hPa
Clouds: Clear
Visibility: 10 miles , 16 km
2017/12/15 16:00 KGOO 151600Z AUTO 00000KT 10SM CLR 16/M12 A3021 RMK AO1

spacer wunderground wow PWS SWWN Image Map